Time;durP1;ratioP1;P1;durP2;ratioP2;P2;SDS_P1;SDS_P2;PMS_P1;PMS_P2;Temp;Humidity;BMP_temperature;BMP_pressure;BME280_temperature;BME280_humidity;BME280_pressure;Samples;Min_cycle;Max_cycle;Signal;HPM_P1;HPM_P2
2021/05/25 00:01:42;;;;;;;5.30;4.80;;;;;;;;;;5036170;28;20567;-84
2021/05/25 00:04:07;;;;;;;5.10;4.50;;;;;;;;;;5034871;28;20643;-83
2021/05/25 00:06:32;;;;;;;6.13;4.87;;;;;;;;;;5034122;28;20918;-84
2021/05/25 00:08:58;;;;;;;4.50;4.10;;;;;;;;;;5033848;28;20176;-83
2021/05/25 00:11:23;;;;;;;7.33;5.20;;;;;;;;;;5034645;28;20177;-83
2021/05/25 00:13:48;;;;;;;5.77;4.70;;;;;;;;;;5034058;28;20187;-83
2021/05/25 00:16:14;;;;;;;5.27;4.57;;;;;;;;;;5035712;28;20175;-84
2021/05/25 00:18:39;;;;;;;5.30;4.70;;;;;;;;;;5035228;28;20589;-83
2021/05/25 00:21:05;;;;;;;5.80;5.00;;;;;;;;;;5035306;28;20251;-83
2021/05/25 00:23:30;;;;;;;5.53;5.03;;;;;;;;;;5035054;28;20181;-83
2021/05/25 00:25:55;;;;;;;5.47;4.50;;;;;;;;;;5034811;28;20172;-83
2021/05/25 00:28:21;;;;;;;5.73;4.70;;;;;;;;;;5034893;28;20242;-83
2021/05/25 00:30:46;;;;;;;6.77;4.70;;;;;;;;;;5034938;28;20192;-83
2021/05/25 00:33:12;;;;;;;6.10;4.57;;;;;;;;;;5034882;28;20576;-84
2021/05/25 00:35:40;;;;;;;9.87;6.50;;;;;;;;;;5034835;28;20168;-84
2021/05/25 00:38:05;;;;;;;5.77;5.17;;;;;;;;;;5035140;28;20204;-83
2021/05/25 00:40:31;;;;;;;7.03;5.20;;;;;;;;;;5034659;28;20187;-83
2021/05/25 00:42:56;;;;;;;6.00;5.40;;;;;;;;;;5034503;28;20200;-83
2021/05/25 00:45:21;;;;;;;7.23;4.63;;;;;;;;;;5034474;28;20648;-84
2021/05/25 00:47:47;;;;;;;7.40;4.83;;;;;;;;;;5034831;28;20184;-83
2021/05/25 00:50:14;;;;;;;8.97;5.50;;;;;;;;;;5034634;28;20199;-83
2021/05/25 00:52:44;;;;;;;6.47;5.30;;;;;;;;;;5034666;28;20172;-84
2021/05/25 00:55:12;;;;;;;5.47;4.80;;;;;;;;;;5034688;28;20180;-83
2021/05/25 00:57:39;;;;;;;5.77;5.10;;;;;;;;;;5034619;28;20204;-83
2021/05/25 01:00:06;;;;;;;5.33;4.83;;;;;;;;;;5034994;28;20191;-82
2021/05/25 01:02:32;;;;;;;5.40;4.90;;;;;;;;;;5039799;28;20207;-83
2021/05/25 01:04:58;;;;;;;5.50;5.00;;;;;;;;;;5042848;28;20248;-83
2021/05/25 01:07:24;;;;;;;5.63;5.07;;;;;;;;;;5044772;28;20181;-84
2021/05/25 01:09:51;;;;;;;5.83;5.13;;;;;;;;;;5045732;28;20168;-85
2021/05/25 01:12:16;;;;;;;7.33;5.80;;;;;;;;;;5046374;28;20527;-85
2021/05/25 01:14:47;;;;;;;6.13;4.97;;;;;;;;;;5046202;28;20177;-85
2021/05/25 01:17:12;;;;;;;5.47;4.93;;;;;;;;;;5045990;28;20171;-85
2021/05/25 01:19:38;;;;;;;5.70;5.07;;;;;;;;;;5045175;28;20212;-84
2021/05/25 01:22:03;;;;;;;5.80;5.30;;;;;;;;;;5044652;28;20179;-84
2021/05/25 01:24:30;;;;;;;7.43;5.43;;;;;;;;;;5037767;28;20302;-84
2021/05/25 01:27:03;;;;;;;5.80;5.10;;;;;;;;;;5033703;28;20545;-84
2021/05/25 01:29:28;;;;;;;5.20;4.73;;;;;;;;;;5034400;28;20280;-84
2021/05/25 01:31:54;;;;;;;5.33;4.83;;;;;;;;;;5033652;28;20311;-84
2021/05/25 01:34:19;;;;;;;6.17;5.60;;;;;;;;;;5034178;28;20169;-84
2021/05/25 01:36:45;;;;;;;5.97;5.40;;;;;;;;;;5033839;28;20218;-84
2021/05/25 01:39:11;;;;;;;5.90;5.30;;;;;;;;;;5034027;28;20204;-84
2021/05/25 01:41:36;;;;;;;6.53;5.40;;;;;;;;;;5033511;28;20184;-84
2021/05/25 01:44:02;;;;;;;7.53;5.47;;;;;;;;;;5033941;28;20347;-84
2021/05/25 01:46:27;;;;;;;6.10;5.50;;;;;;;;;;5033947;28;20279;-84
2021/05/25 01:48:53;;;;;;;6.17;5.67;;;;;;;;;;5033804;28;20207;-84
2021/05/25 01:51:19;;;;;;;6.30;5.80;;;;;;;;;;5033584;28;20173;-84
2021/05/25 01:53:45;;;;;;;6.67;6.07;;;;;;;;;;5033127;28;20180;-84
2021/05/25 01:56:10;;;;;;;6.23;5.63;;;;;;;;;;5034175;28;20180;-84
2021/05/25 01:58:35;;;;;;;5.83;5.23;;;;;;;;;;5033980;28;20247;-84
2021/05/25 02:01:06;;;;;;;6.33;5.67;;;;;;;;;;5033946;28;20222;-85
2021/05/25 02:03:31;;;;;;;6.30;5.70;;;;;;;;;;5033601;28;20539;-85
2021/05/25 02:05:57;;;;;;;6.40;5.80;;;;;;;;;;5033708;28;20168;-85
2021/05/25 02:08:23;;;;;;;7.70;5.97;;;;;;;;;;5033230;28;20173;-85
2021/05/25 02:10:50;;;;;;;8.80;6.20;;;;;;;;;;5033366;28;20179;-85
2021/05/25 02:13:16;;;;;;;6.20;5.60;;;;;;;;;;5034036;28;20176;-84
2021/05/25 02:15:43;;;;;;;6.20;5.67;;;;;;;;;;5033252;28;20220;-85
2021/05/25 02:18:12;;;;;;;6.53;5.77;;;;;;;;;;5034042;28;20235;-84
2021/05/25 02:20:39;;;;;;;6.27;5.63;;;;;;;;;;5032256;28;20684;-84
2021/05/25 02:23:05;;;;;;;6.90;5.60;;;;;;;;;;5033382;28;20238;-85
2021/05/25 02:25:30;;;;;;;7.40;6.57;;;;;;;;;;5033164;28;20172;-85
2021/05/25 02:27:56;;;;;;;5.97;5.43;;;;;;;;;;5033616;28;20223;-85
2021/05/25 02:30:22;;;;;;;6.13;5.53;;;;;;;;;;5033103;28;20196;-85
2021/05/25 02:32:47;;;;;;;6.23;5.53;;;;;;;;;;5033226;28;20224;-85
2021/05/25 02:35:12;;;;;;;6.37;5.77;;;;;;;;;;5032961;28;20686;-85
2021/05/25 02:37:38;;;;;;;8.37;5.77;;;;;;;;;;5032132;28;20672;-84
2021/05/25 02:40:04;;;;;;;5.90;5.40;;;;;;;;;;5032894;28;20203;-85
2021/05/25 02:42:29;;;;;;;6.60;6.00;;;;;;;;;;5033605;28;20199;-85
2021/05/25 02:44:54;;;;;;;6.10;5.27;;;;;;;;;;5033129;28;20204;-85
2021/05/25 02:47:20;;;;;;;6.40;5.80;;;;;;;;;;5033137;28;20172;-85
2021/05/25 02:49:46;;;;;;;6.23;5.63;;;;;;;;;;5032882;28;20219;-85
2021/05/25 02:52:11;;;;;;;6.47;5.60;;;;;;;;;;5033378;28;20184;-85
2021/05/25 02:54:37;;;;;;;6.40;5.77;;;;;;;;;;5033142;28;20172;-85
2021/05/25 02:57:02;;;;;;;7.10;6.40;;;;;;;;;;5033446;28;20168;-85
2021/05/25 02:59:27;;;;;;;6.50;5.77;;;;;;;;;;5033374;28;20547;-85
2021/05/25 03:01:53;;;;;;;7.07;5.87;;;;;;;;;;5032413;28;20275;-84
2021/05/25 03:04:18;;;;;;;6.93;6.23;;;;;;;;;;5033361;28;20194;-85
2021/05/25 03:06:43;;;;;;;7.63;6.20;;;;;;;;;;5036326;28;20260;-85
2021/05/25 03:09:09;;;;;;;8.03;6.40;;;;;;;;;;5036714;28;20609;-85
2021/05/25 03:11:34;;;;;;;7.43;6.53;;;;;;;;;;5035410;28;20659;-84
2021/05/25 03:14:00;;;;;;;8.23;6.23;;;;;;;;;;5036305;28;20248;-83
2021/05/25 03:16:25;;;;;;;7.00;6.13;;;;;;;;;;5036044;28;20164;-83
2021/05/25 03:18:51;;;;;;;8.33;6.83;;;;;;;;;;5035998;28;20197;-83
2021/05/25 03:21:16;;;;;;;7.13;6.10;;;;;;;;;;5036350;28;20179;-84
2021/05/25 03:23:41;;;;;;;7.17;6.13;;;;;;;;;;5036384;28;20179;-83
2021/05/25 03:26:07;;;;;;;7.10;6.40;;;;;;;;;;5036021;28;20251;-84
2021/05/25 03:28:32;;;;;;;8.70;6.43;;;;;;;;;;5034523;28;20200;-84
2021/05/25 03:30:57;;;;;;;8.47;6.20;;;;;;;;;;5035673;28;20224;-84
2021/05/25 03:33:22;;;;;;;7.17;6.50;;;;;;;;;;5036468;28;20318;-84
2021/05/25 03:35:48;;;;;;;6.70;6.03;;;;;;;;;;5036043;28;20172;-84
2021/05/25 03:38:13;;;;;;;7.00;6.30;;;;;;;;;;5034549;28;20223;-84
2021/05/25 03:40:39;;;;;;;7.20;6.17;;;;;;;;;;5036481;28;20173;-83
2021/05/25 03:43:04;;;;;;;6.70;6.00;;;;;;;;;;5035640;28;20642;-83
2021/05/25 03:45:30;;;;;;;6.37;5.77;;;;;;;;;;5035953;28;20169;-84
2021/05/25 03:47:55;;;;;;;7.00;6.30;;;;;;;;;;5035753;28;20263;-84
2021/05/25 03:50:21;;;;;;;7.10;6.40;;;;;;;;;;5035806;28;20180;-83
2021/05/25 03:52:47;;;;;;;7.10;6.20;;;;;;;;;;5035728;28;20234;-83
2021/05/25 03:55:25;;;;;;;8.70;6.17;;;;;;;;;;5035576;28;20517;-84
2021/05/25 04:00:35;;;;;;;6.90;6.20;;;;;;;;;;5035406;28;20592;-84
2021/05/25 04:03:00;;;;;;;7.77;6.50;;;;;;;;;;5035437;28;20200;-84
2021/05/25 04:05:26;;;;;;;6.30;5.70;;;;;;;;;;5035732;28;20171;-85
2021/05/25 04:07:51;;;;;;;5.90;5.40;;;;;;;;;;5035695;28;20263;-84
2021/05/25 04:10:16;;;;;;;5.97;5.47;;;;;;;;;;5035082;28;20169;-85
2021/05/25 04:12:42;;;;;;;6.60;5.63;;;;;;;;;;5035243;28;20204;-84
2021/05/25 04:15:07;;;;;;;6.90;5.43;;;;;;;;;;5035449;28;20172;-85
2021/05/25 04:17:32;;;;;;;5.50;5.00;;;;;;;;;;5034706;28;20192;-85
2021/05/25 04:19:58;;;;;;;6.00;5.50;;;;;;;;;;5035530;28;20180;-85
2021/05/25 04:22:23;;;;;;;6.20;5.30;;;;;;;;;;5035273;28;20173;-84
2021/05/25 04:24:49;;;;;;;7.90;5.47;;;;;;;;;;5034942;28;20173;-85
2021/05/25 04:27:14;;;;;;;8.67;6.00;;;;;;;;;;5034914;28;20169;-84
2021/05/25 04:29:39;;;;;;;8.13;5.93;;;;;;;;;;5034884;28;20589;-84
2021/05/25 04:32:06;;;;;;;6.70;5.37;;;;;;;;;;5035624;28;20236;-84
2021/05/25 04:34:32;;;;;;;5.67;5.17;;;;;;;;;;5035133;28;20168;-84
2021/05/25 04:36:57;;;;;;;6.30;5.80;;;;;;;;;;5035611;28;20260;-85
2021/05/25 04:39:22;;;;;;;7.50;6.43;;;;;;;;;;5034845;28;20196;-84
2021/05/25 04:41:49;;;;;;;6.00;5.50;;;;;;;;;;5041781;28;20671;-85
2021/05/25 04:44:14;;;;;;;5.33;4.90;;;;;;;;;;5040698;28;20236;-84
2021/05/25 04:46:40;;;;;;;5.70;5.20;;;;;;;;;;5039882;28;20521;-84
2021/05/25 04:49:05;;;;;;;5.87;5.37;;;;;;;;;;5034822;28;20183;-84
2021/05/25 04:51:30;;;;;;;7.17;6.20;;;;;;;;;;5034915;28;20165;-84
2021/05/25 04:53:56;;;;;;;6.63;5.90;;;;;;;;;;5035365;28;20177;-84
2021/05/25 04:56:21;;;;;;;6.30;5.70;;;;;;;;;;5034438;28;20222;-84
2021/05/25 04:58:47;;;;;;;6.33;5.73;;;;;;;;;;5034577;28;20668;-84
2021/05/25 05:01:12;;;;;;;7.23;5.90;;;;;;;;;;5034467;28;20176;-85
2021/05/25 05:03:38;;;;;;;8.00;5.87;;;;;;;;;;5033295;28;20183;-84
2021/05/25 05:06:03;;;;;;;7.03;6.40;;;;;;;;;;5035043;28;20188;-83
2021/05/25 05:08:28;;;;;;;6.60;5.90;;;;;;;;;;5034431;28;20183;-84
2021/05/25 05:10:53;;;;;;;7.00;6.30;;;;;;;;;;5034356;28;20177;-84
2021/05/25 05:13:19;;;;;;;6.27;5.63;;;;;;;;;;5033168;28;20222;-83
2021/05/25 05:15:44;;;;;;;7.30;5.20;;;;;;;;;;5034403;28;20218;-83
2021/05/25 05:18:09;;;;;;;7.20;5.03;;;;;;;;;;5033945;28;20570;-83
2021/05/25 05:20:35;;;;;;;5.60;5.10;;;;;;;;;;5034227;28;20183;-84
2021/05/25 05:23:00;;;;;;;6.23;5.63;;;;;;;;;;5034188;28;20683;-85
2021/05/25 05:25:26;;;;;;;5.10;4.70;;;;;;;;;;5034127;28;20173;-85
2021/05/25 05:27:52;;;;;;;5.63;5.13;;;;;;;;;;5033051;28;20577;-85
2021/05/25 05:30:17;;;;;;;5.83;4.60;;;;;;;;;;5033690;28;20232;-85
2021/05/25 05:32:42;;;;;;;6.60;5.13;;;;;;;;;;5035276;28;20224;-84
2021/05/25 05:35:08;;;;;;;5.20;4.80;;;;;;;;;;5033727;28;20553;-84
2021/05/25 05:37:34;;;;;;;5.47;4.97;;;;;;;;;;5033920;28;20176;-84
2021/05/25 05:39:59;;;;;;;5.83;4.83;;;;;;;;;;5033680;28;20171;-85
2021/05/25 05:42:24;;;;;;;5.53;4.70;;;;;;;;;;5034296;28;20169;-85
2021/05/25 05:44:50;;;;;;;6.20;4.97;;;;;;;;;;5033552;28;20165;-85
2021/05/25 05:47:15;;;;;;;8.87;7.97;;;;;;;;;;5033812;28;20160;-84
2021/05/25 05:49:41;;;;;;;5.57;4.97;;;;;;;;;;5033914;28;20164;-84
2021/05/25 05:52:06;;;;;;;7.70;6.30;;;;;;;;;;5034182;28;20169;-84
2021/05/25 05:54:31;;;;;;;7.40;6.63;;;;;;;;;;5038594;28;20202;-85
2021/05/25 05:56:57;;;;;;;7.50;6.47;;;;;;;;;;5053829;28;20176;-86
2021/05/25 05:59:22;;;;;;;7.40;5.90;;;;;;;;;;5054171;28;20663;-86
2021/05/25 06:01:47;;;;;;;6.60;5.47;;;;;;;;;;5053216;28;20191;-85
2021/05/25 06:04:13;;;;;;;6.13;4.73;;;;;;;;;;5053278;28;20528;-85
2021/05/25 06:06:38;;;;;;;5.70;5.20;;;;;;;;;;5052921;28;20628;-85
2021/05/25 06:09:04;;;;;;;6.63;5.90;;;;;;;;;;5042641;28;20169;-86
2021/05/25 06:11:29;;;;;;;5.87;5.30;;;;;;;;;;5049759;28;20195;-83
2021/05/25 06:13:55;;;;;;;5.60;5.20;;;;;;;;;;5053004;28;20183;-85
2021/05/25 06:16:20;;;;;;;5.57;5.00;;;;;;;;;;5053304;28;20254;-85
2021/05/25 06:18:46;;;;;;;6.00;5.40;;;;;;;;;;5053506;28;20199;-84
2021/05/25 06:21:11;;;;;;;6.87;6.17;;;;;;;;;;5053317;28;20222;-85
2021/05/25 06:23:37;;;;;;;5.53;5.03;;;;;;;;;;5053107;28;20226;-84
2021/05/25 06:26:02;;;;;;;5.80;5.30;;;;;;;;;;5053928;28;20722;-84
2021/05/25 06:28:29;;;;;;;5.90;5.07;;;;;;;;;;5053215;28;20176;-83
2021/05/25 06:30:55;;;;;;;5.33;4.93;;;;;;;;;;5053046;28;20238;-85
2021/05/25 06:33:20;;;;;;;6.53;5.20;;;;;;;;;;5052663;28;20160;-85
2021/05/25 06:35:49;;;;;;;7.07;6.37;;;;;;;;;;5053226;28;20176;-85
2021/05/25 06:38:14;;;;;;;6.93;6.23;;;;;;;;;;5053283;28;20203;-84
2021/05/25 06:40:39;;;;;;;9.23;6.90;;;;;;;;;;5054756;28;20184;-84
2021/05/25 06:43:05;;;;;;;8.17;7.37;;;;;;;;;;5057095;28;20172;-84
2021/05/25 06:45:31;;;;;;;9.10;7.10;;;;;;;;;;5056869;28;20176;-86
2021/05/25 06:47:56;;;;;;;8.27;7.47;;;;;;;;;;5056662;28;20210;-86
2021/05/25 06:50:21;;;;;;;8.30;7.60;;;;;;;;;;5057134;28;20221;-86
2021/05/25 06:52:47;;;;;;;8.37;7.67;;;;;;;;;;5056575;28;20179;-85
2021/05/25 06:55:13;;;;;;;8.37;7.57;;;;;;;;;;5056728;28;20168;-85
2021/05/25 06:57:38;;;;;;;8.60;7.10;;;;;;;;;;5057084;28;20235;-86
2021/05/25 07:00:05;;;;;;;7.97;7.17;;;;;;;;;;5056249;28;20179;-86
2021/05/25 07:02:30;;;;;;;9.20;8.30;;;;;;;;;;5052333;28;20266;-87
2021/05/25 07:04:56;;;;;;;9.77;8.87;;;;;;;;;;5054176;28;20648;-87
2021/05/25 07:07:22;;;;;;;8.60;8.00;;;;;;;;;;5054557;28;20616;-86
2021/05/25 07:09:47;;;;;;;8.03;7.23;;;;;;;;;;5056679;28;20184;-86
2021/05/25 07:12:13;;;;;;;7.97;6.80;;;;;;;;;;5056616;28;20578;-86
2021/05/25 07:14:39;;;;;;;7.23;6.63;;;;;;;;;;5055127;28;20195;-86
2021/05/25 07:17:04;;;;;;;8.03;6.80;;;;;;;;;;5055988;28;20180;-87
2021/05/25 07:19:30;;;;;;;6.43;5.87;;;;;;;;;;5054821;28;20330;-85
2021/05/25 07:21:55;;;;;;;7.47;6.77;;;;;;;;;;5055404;28;20258;-88
2021/05/25 07:24:20;;;;;;;6.27;5.67;;;;;;;;;;5056569;28;20257;-87
2021/05/25 07:26:46;;;;;;;7.00;6.40;;;;;;;;;;5056190;28;20545;-84
2021/05/25 07:29:11;;;;;;;6.93;6.33;;;;;;;;;;5056027;28;20539;-83
2021/05/25 07:31:36;;;;;;;7.03;5.70;;;;;;;;;;5056154;28;20242;-84
2021/05/25 07:34:02;;;;;;;6.93;5.77;;;;;;;;;;5055539;28;20551;-83
2021/05/25 07:36:27;;;;;;;5.40;5.00;;;;;;;;;;5056075;28;20172;-84
2021/05/25 07:38:52;;;;;;;4.90;4.40;;;;;;;;;;5055771;28;20199;-84
2021/05/25 07:41:18;;;;;;;7.10;5.23;;;;;;;;;;5055791;28;20187;-84
2021/05/25 07:43:44;;;;;;;7.80;7.03;;;;;;;;;;5043439;28;20192;-85
2021/05/25 07:46:10;;;;;;;7.07;6.47;;;;;;;;;;5045608;28;20180;-84
2021/05/25 07:48:35;;;;;;;6.37;5.87;;;;;;;;;;5055556;28;20242;-85
2021/05/25 07:51:01;;;;;;;6.73;6.10;;;;;;;;;;5054780;28;20176;-85
2021/05/25 07:53:26;;;;;;;6.37;5.77;;;;;;;;;;5055741;28;20187;-84
2021/05/25 07:55:51;;;;;;;5.27;4.87;;;;;;;;;;5055188;28;20547;-83
2021/05/25 07:58:17;;;;;;;5.70;5.00;;;;;;;;;;5053799;28;20199;-83
2021/05/25 08:00:42;;;;;;;4.93;4.40;;;;;;;;;;5053497;28;20568;-84
2021/05/25 08:03:08;;;;;;;5.33;4.00;;;;;;;;;;5054984;28;20172;-83
2021/05/25 08:05:33;;;;;;;5.03;4.13;;;;;;;;;;5055520;28;20164;-83
2021/05/25 08:08:02;;;;;;;6.03;4.00;;;;;;;;;;5055295;28;20250;-83
2021/05/25 08:10:27;;;;;;;4.63;4.20;;;;;;;;;;5054085;28;20552;-83
2021/05/25 08:12:52;;;;;;;4.30;3.90;;;;;;;;;;5035206;28;20195;-84
2021/05/25 08:15:18;;;;;;;3.80;3.50;;;;;;;;;;5050524;28;20268;-83
2021/05/25 08:20:28;;;;;;;4.17;3.60;;;;;;;;;;5035153;28;20167;-84
2021/05/25 08:22:55;;;;;;;4.53;3.87;;;;;;;;;;5034890;28;20267;-84
2021/05/25 08:25:25;;;;;;;4.17;3.77;;;;;;;;;;5032958;28;20687;-85
2021/05/25 08:27:52;;;;;;;3.50;3.20;;;;;;;;;;5033462;28;20165;-84
2021/05/25 08:30:18;;;;;;;4.88;3.53;;;;;;;;;;5032824;28;20199;-84
2021/05/25 08:32:44;;;;;;;3.53;3.20;;;;;;;;;;5033305;28;20228;-85
2021/05/25 08:35:10;;;;;;;4.40;3.20;;;;;;;;;;5033097;28;20175;-85
2021/05/25 08:37:35;;;;;;;3.60;3.28;;;;;;;;;;5032934;28;20172;-85
2021/05/25 08:40:03;;;;;;;3.80;3.50;;;;;;;;;;5032507;28;20557;-86
2021/05/25 08:42:28;;;;;;;3.60;3.30;;;;;;;;;;5033020;28;20986;-85
2021/05/25 08:44:53;;;;;;;3.50;3.20;;;;;;;;;;5033687;28;20184;-85
2021/05/25 08:47:19;;;;;;;3.50;3.20;;;;;;;;;;5034744;28;20176;-86
2021/05/25 08:49:45;;;;;;;3.72;3.42;;;;;;;;;;5034716;28;20211;-85
2021/05/25 08:52:10;;;;;;;3.67;3.37;;;;;;;;;;5034325;28;20179;-86
2021/05/25 08:54:38;;;;;;;4.10;3.50;;;;;;;;;;5034912;28;20531;-85
2021/05/25 08:57:04;;;;;;;2.90;2.70;;;;;;;;;;5034252;28;20307;-85
2021/05/25 08:59:29;;;;;;;2.90;2.70;;;;;;;;;;5044648;28;20294;-88
2021/05/25 09:01:54;;;;;;;3.77;2.90;;;;;;;;;;5053860;28;20172;-87
2021/05/25 09:04:20;;;;;;;9.90;5.40;;;;;;;;;;5054163;28;20287;-87
2021/05/25 09:06:46;;;;;;;5.83;3.20;;;;;;;;;;5054372;28;20218;-87
2021/05/25 09:09:13;;;;;;;3.27;3.07;;;;;;;;;;5053857;28;20596;-86
2021/05/25 09:11:57;;;;;;;3.10;2.90;;;;;;;;;;5053044;28;20183;-85
2021/05/25 09:14:22;;;;;;;2.87;2.67;;;;;;;;;;5053778;28;20175;-85
2021/05/25 09:16:48;;;;;;;5.03;3.40;;;;;;;;;;5054282;28;20623;-86
2021/05/25 09:19:13;;;;;;;3.67;3.37;;;;;;;;;;5053950;28;20298;-85
2021/05/25 09:21:38;;;;;;;3.03;2.83;;;;;;;;;;5053043;28;20243;-85
2021/05/25 09:24:04;;;;;;;3.63;3.33;;;;;;;;;;5041662;28;20264;-86
2021/05/25 09:26:44;;;;;;;3.57;3.23;;;;;;;;;;5050393;28;20290;-86
2021/05/25 09:29:13;;;;;;;3.87;3.47;;;;;;;;;;5034312;28;20648;-86
2021/05/25 09:31:38;;;;;;;5.43;3.60;;;;;;;;;;5040958;28;20708;-85
2021/05/25 09:34:06;;;;;;;5.82;3.85;;;;;;;;;;5053918;28;20210;-85
2021/05/25 09:36:53;;;;;;;5.53;4.05;;;;;;;;;;5053491;28;20255;-86
2021/05/25 09:39:19;;;;;;;3.22;3.03;;;;;;;;;;5052264;28;20195;-85
2021/05/25 09:42:04;;;;;;;3.30;3.00;;;;;;;;;;5031664;28;20551;-86
2021/05/25 09:44:29;;;;;;;3.60;3.30;;;;;;;;;;5031965;28;20200;-86
2021/05/25 09:46:58;;;;;;;4.45;3.20;;;;;;;;;;5032059;28;20207;-85
2021/05/25 09:49:24;;;;;;;3.45;3.05;;;;;;;;;;5031665;28;20798;-86
2021/05/25 09:52:01;;;;;;;3.70;3.10;;;;;;;;;;5032460;28;20176;-86
2021/05/25 09:54:27;;;;;;;3.28;2.97;;;;;;;;;;5037240;28;20194;-85
2021/05/25 09:56:57;;;;;;;3.83;3.42;;;;;;;;;;5042243;28;20656;-87
2021/05/25 09:59:32;;;;;;;3.58;3.28;;;;;;;;;;5032571;28;20533;-86
2021/05/25 10:02:16;;;;;;;6.45;3.20;;;;;;;;;;5033741;28;20199;-87
2021/05/25 10:04:59;;;;;;;3.92;3.17;;;;;;;;;;5033865;28;20258;-86
2021/05/25 10:07:27;;;;;;;3.70;3.40;;;;;;;;;;5045179;28;20599;-86
2021/05/25 10:09:54;;;;;;;3.77;3.40;;;;;;;;;;5052112;28;20181;-87
2021/05/25 10:12:20;;;;;;;3.63;3.33;;;;;;;;;;5053235;28;20711;-86
2021/05/25 10:14:46;;;;;;;3.77;3.47;;;;;;;;;;5054831;28;20624;-86
2021/05/25 10:17:20;;;;;;;4.27;3.63;;;;;;;;;;5053731;28;20172;-86
2021/05/25 10:19:46;;;;;;;3.90;3.50;;;;;;;;;;5057665;28;20187;-86
2021/05/25 10:22:11;;;;;;;3.67;3.40;;;;;;;;;;5057389;28;20179;-86
2021/05/25 10:24:37;;;;;;;4.00;3.70;;;;;;;;;;5056927;28;20225;-86
2021/05/25 10:27:03;;;;;;;5.23;3.80;;;;;;;;;;5057013;28;20164;-85
2021/05/25 10:29:28;;;;;;;3.83;3.53;;;;;;;;;;5056876;28;20640;-86
2021/05/25 10:31:57;;;;;;;4.20;3.80;;;;;;;;;;5045184;28;20259;-86
2021/05/25 10:34:30;;;;;;;4.87;4.40;;;;;;;;;;5037411;28;20168;-85
2021/05/25 10:36:57;;;;;;;4.13;3.83;;;;;;;;;;5037270;28;20161;-85
2021/05/25 10:39:33;;;;;;;4.80;4.40;;;;;;;;;;5037717;28;20546;-85
2021/05/25 10:42:17;;;;;;;4.37;4.07;;;;;;;;;;5072199;28;20188;-86
2021/05/25 10:44:47;;;;;;;4.77;4.43;;;;;;;;;;5069165;28;20217;-87
2021/05/25 10:48:08;;;;;;;4.70;4.30;;;;;;;;;;5069913;28;20497;-86
2021/05/25 10:50:17;;;;;;;4.47;4.17;;;;;;;;;;5057440;28;20186;-86
2021/05/25 10:52:55;;;;;;;6.00;4.30;;;;;;;;;;5056733;28;20599;-86
2021/05/25 10:55:36;;;;;;;5.67;5.13;;;;;;;;;;5057017;28;20172;-86
2021/05/25 10:58:31;;;;;;;6.27;5.13;;;;;;;;;;5056416;28;20668;-85
2021/05/25 11:01:00;;;;;;;5.97;4.90;;;;;;;;;;5049536;28;20531;-85
2021/05/25 11:03:26;;;;;;;5.30;4.90;;;;;;;;;;5056881;28;20198;-85
2021/05/25 11:05:59;;;;;;;4.87;4.37;;;;;;;;;;5056372;28;20525;-85
2021/05/25 11:08:25;;;;;;;5.67;4.90;;;;;;;;;;5056653;28;20179;-85
2021/05/25 11:10:53;;;;;;;5.20;4.70;;;;;;;;;;5056292;28;20168;-85
2021/05/25 11:13:25;;;;;;;5.47;4.97;;;;;;;;;;5056405;28;20180;-85
2021/05/25 11:16:12;;;;;;;4.87;4.50;;;;;;;;;;5056583;28;20175;-85
2021/05/25 11:19:45;;;;;;;5.33;4.93;;;;;;;;;;5056530;28;20238;-85
2021/05/25 11:21:46;;;;;;;5.83;4.97;;;;;;;;;;5046818;28;20187;-86
2021/05/25 11:24:31;;;;;;;5.25;4.75;;;;;;;;;;5056352;28;20168;-85
2021/05/25 11:26:59;;;;;;;5.00;4.60;;;;;;;;;;5056399;28;20248;-85
2021/05/25 11:29:26;;;;;;;5.13;4.72;;;;;;;;;;5056177;28;20210;-85
2021/05/25 11:31:52;;;;;;;5.88;5.38;;;;;;;;;;5044693;28;20685;-85
2021/05/25 11:34:22;;;;;;;5.40;5.00;;;;;;;;;;5035844;28;20169;-87
2021/05/25 11:36:58;;;;;;;5.80;5.30;;;;;;;;;;5035862;28;20149;-86
2021/05/25 11:39:24;;;;;;;5.50;5.10;;;;;;;;;;5036021;28;20224;-86
2021/05/25 11:41:50;;;;;;;5.70;5.15;;;;;;;;;;5036345;28;20254;-85
2021/05/25 11:44:17;;;;;;;5.50;5.00;;;;;;;;;;5035684;28;20192;-85
2021/05/25 11:46:47;;;;;;;5.68;5.20;;;;;;;;;;5036051;28;20303;-85
2021/05/25 11:49:13;;;;;;;5.90;5.30;;;;;;;;;;5036036;28;20226;-85
2021/05/25 11:51:41;;;;;;;6.20;5.60;;;;;;;;;;5036210;28;20620;-85
2021/05/25 11:54:10;;;;;;;6.32;5.70;;;;;;;;;;5034758;28;20473;-85
2021/05/25 11:56:35;;;;;;;5.10;4.78;;;;;;;;;;5035788;28;20183;-85
2021/05/25 11:59:01;;;;;;;5.70;5.20;;;;;;;;;;5035485;28;20196;-85
2021/05/25 12:01:45;;;;;;;5.20;4.80;;;;;;;;;;5035798;28;20173;-85
2021/05/25 12:04:11;;;;;;;5.60;5.20;;;;;;;;;;5035749;28;20631;-86
2021/05/25 12:06:58;;;;;;;5.15;4.78;;;;;;;;;;5062907;28;20207;-86
2021/05/25 12:09:27;;;;;;;5.97;5.38;;;;;;;;;;5075795;28;20175;-86
2021/05/25 12:12:07;;;;;;;5.95;5.50;;;;;;;;;;5053205;28;20322;-85
2021/05/25 12:14:33;;;;;;;5.65;5.25;;;;;;;;;;5048572;28;20254;-86
2021/05/25 12:17:00;;;;;;;5.57;5.07;;;;;;;;;;5055072;28;20182;-86
2021/05/25 12:19:26;;;;;;;5.72;5.10;;;;;;;;;;5054498;28;20242;-86
2021/05/25 12:22:02;;;;;;;5.78;5.38;;;;;;;;;;5054712;28;20271;-86
2021/05/25 12:24:29;;;;;;;7.07;5.00;;;;;;;;;;5055114;28;20179;-86
2021/05/25 12:26:55;;;;;;;6.40;5.57;;;;;;;;;;5055172;28;20221;-87
2021/05/25 12:29:21;;;;;;;5.82;5.07;;;;;;;;;;5055084;28;20202;-86
2021/05/25 12:31:47;;;;;;;6.10;5.60;;;;;;;;;;5044275;28;20229;-85
2021/05/25 12:34:15;;;;;;;6.13;5.53;;;;;;;;;;5033888;28;20534;-85
2021/05/25 12:36:51;;;;;;;5.55;5.18;;;;;;;;;;5034402;28;20196;-85
2021/05/25 12:39:25;;;;;;;6.10;5.50;;;;;;;;;;5034496;28;20548;-86
2021/05/25 12:41:51;;;;;;;5.53;5.13;;;;;;;;;;5033920;28;20164;-85
2021/05/25 12:44:19;;;;;;;5.47;5.07;;;;;;;;;;5034515;28;20176;-86
2021/05/25 12:47:01;;;;;;;5.88;5.10;;;;;;;;;;5034807;28;20552;-86
2021/05/25 12:49:34;;;;;;;5.82;5.32;;;;;;;;;;5035266;28;20243;-86
2021/05/25 12:52:18;;;;;;;6.43;5.30;;;;;;;;;;5035027;28;20701;-86
2021/05/25 12:55:00;;;;;;;5.65;5.25;;;;;;;;;;5035349;28;20180;-86
2021/05/25 12:57:44;;;;;;;6.22;5.60;;;;;;;;;;5034653;28;20168;-85
2021/05/25 13:00:10;;;;;;;5.90;5.28;;;;;;;;;;5036856;28;20254;-85
2021/05/25 13:02:42;;;;;;;5.68;5.18;;;;;;;;;;5049685;28;20179;-87
2021/05/25 13:05:12;;;;;;;6.00;5.50;;;;;;;;;;5054097;28;20520;-87
2021/05/25 13:08:08;;;;;;;5.70;5.20;;;;;;;;;;5054325;28;20500;-87
2021/05/25 13:13:10;;;;;;;7.75;5.70;;;;;;;;;;5055079;28;20184;-86
2021/05/25 13:15:36;;;;;;;5.80;5.30;;;;;;;;;;5053334;28;20183;-86
2021/05/25 13:18:01;;;;;;;6.05;5.10;;;;;;;;;;5054272;28;20282;-86
2021/05/25 13:20:28;;;;;;;5.93;5.43;;;;;;;;;;5054245;28;20682;-86
2021/05/25 13:22:53;;;;;;;5.72;5.22;;;;;;;;;;5051835;28;20621;-86
2021/05/25 13:25:28;;;;;;;5.68;5.28;;;;;;;;;;5034062;28;20189;-86
2021/05/25 13:27:53;;;;;;;6.35;5.85;;;;;;;;;;5034011;28;20160;-86
2021/05/25 13:30:30;;;;;;;4.57;4.17;;;;;;;;;;5034233;28;20230;-86
2021/05/25 13:32:57;;;;;;;6.80;4.70;;;;;;;;;;5031279;28;20318;-86
2021/05/25 13:35:22;;;;;;;7.17;4.20;;;;;;;;;;5033611;28;20177;-90
2021/05/25 13:37:47;;;;;;;9.50;4.90;;;;;;;;;;5033636;28;20252;-89
2021/05/25 13:40:13;;;;;;;6.03;4.60;;;;;;;;;;5032579;28;20302;-88
2021/05/25 13:42:41;;;;;;;5.40;4.17;;;;;;;;;;5030631;28;20181;-88
2021/05/25 13:45:07;;;;;;;4.70;4.20;;;;;;;;;;5032032;28;20251;-87
2021/05/25 13:47:32;;;;;;;6.10;4.30;;;;;;;;;;5034408;28;20314;-87
2021/05/25 13:49:58;;;;;;;6.67;4.37;;;;;;;;;;5050252;28;20197;-87
2021/05/25 13:52:23;;;;;;;7.83;4.33;;;;;;;;;;5051545;28;20190;-87
2021/05/25 13:54:51;;;;;;;5.33;4.30;;;;;;;;;;5046911;28;20180;-87
2021/05/25 13:57:21;;;;;;;6.17;4.70;;;;;;;;;;5047041;28;20172;-87
2021/05/25 14:02:13;;;;;;;4.53;3.90;;;;;;;;;;5042405;28;20199;-87
2021/05/25 14:04:38;;;;;;;7.33;4.00;;;;;;;;;;5052503;28;20195;-85
2021/05/25 14:07:09;;;;;;;5.30;3.50;;;;;;;;;;5053682;28;20203;-85
2021/05/25 14:09:35;;;;;;;4.00;3.57;;;;;;;;;;5053198;28;20187;-84
2021/05/25 14:12:00;;;;;;;5.03;3.63;;;;;;;;;;5053727;28;20168;-84
2021/05/25 14:14:25;;;;;;;5.10;4.70;;;;;;;;;;5053507;28;20175;-84
2021/05/25 14:16:51;;;;;;;7.63;5.30;;;;;;;;;;5052742;28;20229;-84
2021/05/25 14:19:16;;;;;;;4.40;4.00;;;;;;;;;;5055259;28;20214;-84
2021/05/25 14:21:41;;;;;;;5.10;4.20;;;;;;;;;;5054325;28;20176;-84
2021/05/25 14:24:07;;;;;;;7.47;4.30;;;;;;;;;;5056255;28;20688;-84
2021/05/25 14:26:32;;;;;;;5.83;4.23;;;;;;;;;;5056590;28;20165;-83
2021/05/25 14:28:58;;;;;;;9.03;4.30;;;;;;;;;;5054476;28;20605;-82
2021/05/25 14:31:25;;;;;;;5.27;4.20;;;;;;;;;;5052998;28;20230;-83
2021/05/25 14:33:51;;;;;;;5.63;4.20;;;;;;;;;;5050403;28;20238;-84
2021/05/25 14:36:17;;;;;;;5.97;4.07;;;;;;;;;;5053283;28;20585;-84
2021/05/25 14:38:46;;;;;;;6.53;4.10;;;;;;;;;;5053170;28;20648;-84
2021/05/25 14:41:11;;;;;;;11.90;4.70;;;;;;;;;;5053262;28;20172;-83
2021/05/25 14:43:40;;;;;;;4.93;4.27;;;;;;;;;;5052944;28;20648;-84
2021/05/25 14:46:05;;;;;;;7.93;4.30;;;;;;;;;;5053149;28;20186;-84
2021/05/25 14:48:30;;;;;;;7.87;3.90;;;;;;;;;;5052755;28;20172;-84
2021/05/25 14:50:57;;;;;;;4.77;4.00;;;;;;;;;;5052719;28;20221;-84
2021/05/25 14:53:31;;;;;;;5.07;4.33;;;;;;;;;;5052949;28;20172;-84
2021/05/25 14:58:51;;;;;;;3.93;3.60;;;;;;;;;;5052746;28;20190;-84